Time;durP1;ratioP1;P1;durP2;ratioP2;P2;SDS_P1;SDS_P2;PMS_P1;PMS_P2;Temp;Humidity;BMP_temperature;BMP_pressure;BME280_temperature;BME280_humidity;BME280_pressure;Samples;Min_cycle;Max_cycle;Signal;HPM_P1;HPM_P2
2021/07/26 00:01:16;;;;;;;10.50;9.40;;;22.90;94.20;;;;;;6245101;23;20350;-59
2021/07/26 00:03:42;;;;;;;11.25;9.98;;;22.90;94.30;;;;;;6245813;23;20035;-62
2021/07/26 00:06:09;;;;;;;11.13;9.48;;;22.80;94.40;;;;;;6246245;23;20004;-59
2021/07/26 00:08:36;;;;;;;10.00;9.07;;;22.80;94.40;;;;;;6244797;23;20004;-61
2021/07/26 00:11:04;;;;;;;12.05;9.07;;;22.80;94.50;;;;;;6244758;23;20334;-61
2021/07/26 00:13:30;;;;;;;10.85;9.35;;;22.70;94.60;;;;;;6244581;23;20492;-59
2021/07/26 00:15:56;;;;;;;11.70;8.95;;;22.70;94.70;;;;;;6217596;23;19996;-62
2021/07/26 00:18:22;;;;;;;10.38;9.13;;;22.70;94.70;;;;;;6244873;23;20031;-60
2021/07/26 00:20:48;;;;;;;11.38;9.52;;;22.70;94.80;;;;;;6244792;23;20015;-63
2021/07/26 00:23:14;;;;;;;10.80;8.93;;;22.60;94.80;;;;;;6244732;23;20004;-61
2021/07/26 00:25:39;;;;;;;12.02;9.48;;;22.60;94.80;;;;;;6244627;23;20011;-61
2021/07/26 00:28:07;;;;;;;13.82;9.88;;;22.60;94.80;;;;;;6244483;23;20028;-63
2021/07/26 00:30:33;;;;;;;13.07;9.45;;;22.60;94.90;;;;;;6244679;23;20019;-63
2021/07/26 00:33:02;;;;;;;10.70;9.60;;;22.50;94.90;;;;;;6245410;23;20322;-62
2021/07/26 00:35:28;;;;;;;9.70;8.80;;;22.50;95.00;;;;;;6192929;23;20008;-60
2021/07/26 00:37:54;;;;;;;10.02;9.02;;;22.40;95.20;;;;;;6244832;23;20534;-61
2021/07/26 00:40:19;;;;;;;14.43;9.10;;;22.40;95.20;;;;;;6244785;23;20510;-60
2021/07/26 00:42:45;;;;;;;11.07;9.10;;;22.40;95.20;;;;;;6244434;23;20039;-61
2021/07/26 00:45:11;;;;;;;11.27;9.40;;;22.30;95.40;;;;;;6244101;23;20087;-61
2021/07/26 00:47:37;;;;;;;14.15;10.32;;;22.10;95.80;;;;;;6244768;23;20008;-61
2021/07/26 00:50:03;;;;;;;13.82;9.77;;;22.00;95.90;;;;;;6216175;23;20007;-61
2021/07/26 00:52:29;;;;;;;10.10;9.10;;;22.00;96.10;;;;;;6244335;23;20000;-62
2021/07/26 00:54:55;;;;;;;13.15;9.65;;;22.00;96.10;;;;;;6192812;23;20020;-62
2021/07/26 00:57:22;;;;;;;12.88;9.82;;;22.00;96.20;;;;;;6243837;23;20000;-62
2021/07/26 00:59:50;;;;;;;11.45;9.88;;;22.00;96.10;;;;;;6244742;23;20019;-62
2021/07/26 01:02:15;;;;;;;10.48;9.38;;;22.10;96.00;;;;;;6244059;23;20383;-61
2021/07/26 01:04:41;;;;;;;12.07;10.32;;;22.10;96.00;;;;;;6241447;23;20008;-62
2021/07/26 01:07:07;;;;;;;13.32;9.90;;;22.10;95.90;;;;;;6243068;23;20016;-63
2021/07/26 01:09:33;;;;;;;20.25;12.48;;;22.20;95.90;;;;;;6244083;23;20098;-61
2021/07/26 01:11:58;;;;;;;15.30;10.77;;;22.10;95.90;;;;;;6244448;23;20046;-62
2021/07/26 01:14:25;;;;;;;14.20;11.45;;;22.00;96.00;;;;;;6245052;23;20001;-61
2021/07/26 01:16:50;;;;;;;15.30;11.77;;;22.00;96.10;;;;;;6243473;23;20012;-61
2021/07/26 01:19:16;;;;;;;13.88;11.27;;;22.00;96.20;;;;;;6244119;23;20414;-60
2021/07/26 01:21:42;;;;;;;14.90;11.48;;;21.90;96.50;;;;;;6243962;23;20082;-59
2021/07/26 01:24:08;;;;;;;16.42;12.07;;;21.90;96.30;;;;;;6217112;23;20011;-57
2021/07/26 01:26:33;;;;;;;15.88;11.38;;;21.80;96.30;;;;;;6243473;23;20087;-61
2021/07/26 01:29:05;;;;;;;13.70;11.50;;;21.80;96.40;;;;;;6244273;23;20061;-61
2021/07/26 01:31:31;;;;;;;13.75;11.02;;;21.80;96.30;;;;;;6243880;23;20016;-61
2021/07/26 01:33:57;;;;;;;17.73;13.73;;;21.80;96.40;;;;;;6243980;23;20036;-62
2021/07/26 01:36:23;;;;;;;14.05;12.43;;;21.80;96.30;;;;;;6243733;23;20051;-61
2021/07/26 01:38:53;;;;;;;14.05;12.35;;;21.70;96.30;;;;;;6244162;23;20497;-61
2021/07/26 01:41:26;;;;;;;17.63;12.77;;;21.70;96.20;;;;;;6246258;23;20027;-62
2021/07/26 01:44:03;;;;;;;15.60;12.60;;;21.70;96.40;;;;;;6243980;23;20009;-63
2021/07/26 01:46:46;;;;;;;15.45;13.15;;;21.70;96.40;;;;;;6244306;23;20058;-61
2021/07/26 01:49:27;;;;;;;17.55;13.73;;;21.60;96.40;;;;;;6242781;23;20014;-60
2021/07/26 01:51:53;;;;;;;17.55;13.18;;;21.60;96.40;;;;;;6244424;23;20011;-61
2021/07/26 01:54:20;;;;;;;18.73;14.30;;;21.60;96.30;;;;;;6243585;23;20063;-61
2021/07/26 01:56:46;;;;;;;16.77;12.43;;;21.60;96.20;;;;;;6243872;23;20393;-62
2021/07/26 01:59:11;;;;;;;16.85;12.93;;;21.50;96.20;;;;;;6243534;23;20004;-61
2021/07/26 02:01:37;;;;;;;15.45;12.00;;;21.50;96.20;;;;;;6244339;23;20007;-60
2021/07/26 02:04:03;;;;;;;16.58;12.30;;;21.60;96.20;;;;;;6244530;23;20611;-60
2021/07/26 02:06:28;;;;;;;16.92;12.13;;;21.60;96.10;;;;;;6244826;23;20012;-61
2021/07/26 02:08:54;;;;;;;15.10;11.23;;;21.70;96.00;;;;;;6246774;23;20008;-61
2021/07/26 02:11:21;;;;;;;15.23;11.68;;;21.60;96.00;;;;;;6247339;23;20095;-62
2021/07/26 02:13:48;;;;;;;12.95;10.70;;;21.60;96.40;;;;;;6245711;23;20008;-61
2021/07/26 02:16:14;;;;;;;15.45;11.05;;;21.60;96.20;;;;;;6219331;23;20456;-63
2021/07/26 02:18:39;;;;;;;12.15;10.68;;;21.60;96.10;;;;;;6245717;23;20008;-61
2021/07/26 02:21:05;;;;;;;13.35;11.18;;;21.60;96.10;;;;;;6245934;23;20075;-60
2021/07/26 02:23:30;;;;;;;17.27;12.05;;;21.60;96.20;;;;;;6219630;23;20032;-61
2021/07/26 02:25:56;;;;;;;13.68;11.13;;;21.60;95.80;;;;;;6245553;23;20020;-62
2021/07/26 02:28:22;;;;;;;13.95;11.23;;;21.60;95.90;;;;;;6246009;23;20012;-61
2021/07/26 02:30:47;;;;;;;13.18;11.20;;;21.60;95.90;;;;;;6245619;23;20040;-61
2021/07/26 02:33:13;;;;;;;12.30;10.43;;;21.60;95.80;;;;;;6246096;23;20000;-62
2021/07/26 02:35:39;;;;;;;13.88;10.95;;;21.60;95.80;;;;;;6245439;23;20000;-59
2021/07/26 02:38:05;;;;;;;13.38;10.90;;;21.50;95.80;;;;;;6246226;23;20004;-61
2021/07/26 02:40:30;;;;;;;12.40;11.10;;;21.40;95.90;;;;;;6245408;23;20000;-61
2021/07/26 02:42:56;;;;;;;13.25;11.13;;;21.40;96.20;;;;;;6246225;23;20004;-61
2021/07/26 02:45:26;;;;;;;16.00;10.95;;;21.50;96.00;;;;;;6245525;23;20004;-60
2021/07/26 02:47:52;;;;;;;14.02;11.43;;;21.50;95.90;;;;;;6245530;23;20008;-60
2021/07/26 02:50:19;;;;;;;14.32;10.32;;;21.50;95.60;;;;;;6244911;23;20384;-61
2021/07/26 02:52:45;;;;;;;12.93;10.82;;;21.40;95.50;;;;;;6219841;23;20004;-61
2021/07/26 02:55:11;;;;;;;12.95;10.98;;;21.40;95.70;;;;;;6245619;23;20328;-60
2021/07/26 02:57:36;;;;;;;15.25;11.50;;;21.40;96.00;;;;;;6245475;23;20016;-60
2021/07/26 03:00:04;;;;;;;14.85;10.73;;;21.30;95.90;;;;;;6245747;23;20008;-59
2021/07/26 03:02:29;;;;;;;11.80;10.38;;;21.30;95.80;;;;;;6245595;23;20000;-62
2021/07/26 03:04:58;;;;;;;17.58;10.70;;;21.30;95.70;;;;;;6219374;23;20023;-62
2021/07/26 03:07:24;;;;;;;12.93;11.07;;;21.30;95.70;;;;;;6244868;23;20027;-62
2021/07/26 03:09:50;;;;;;;12.02;10.82;;;21.30;95.50;;;;;;6245560;23;20033;-62
2021/07/26 03:12:15;;;;;;;12.00;10.65;;;21.30;95.30;;;;;;6245877;23;20063;-61
2021/07/26 03:14:41;;;;;;;12.73;9.88;;;21.20;95.20;;;;;;6218975;23;20000;-62
2021/07/26 03:17:06;;;;;;;15.90;10.93;;;21.20;95.40;;;;;;6245098;23;20394;-60
2021/07/26 03:19:34;;;;;;;15.23;10.77;;;21.10;95.30;;;;;;6245202;23;20050;-62
2021/07/26 03:22:17;;;;;;;14.98;10.63;;;21.10;95.50;;;;;;6245485;23;20004;-61
2021/07/26 03:24:43;;;;;;;13.63;10.20;;;21.10;95.70;;;;;;6245325;23;20011;-61
2021/07/26 03:27:08;;;;;;;13.52;10.88;;;21.20;95.70;;;;;;6245974;23;20008;-62
2021/07/26 03:29:34;;;;;;;11.63;10.45;;;21.20;95.80;;;;;;6245183;23;20008;-61
2021/07/26 03:31:59;;;;;;;12.73;11.00;;;21.20;95.50;;;;;;6245286;23;20015;-62
2021/07/26 03:34:26;;;;;;;13.93;10.25;;;21.20;95.40;;;;;;6245641;23;20085;-60
2021/07/26 03:36:52;;;;;;;13.15;11.10;;;21.20;95.40;;;;;;6244756;23;20009;-62
2021/07/26 03:39:18;;;;;;;13.23;11.13;;;21.20;95.40;;;;;;6218018;23;20326;-61
2021/07/26 03:41:43;;;;;;;12.82;10.13;;;21.20;95.00;;;;;;6245382;23;20494;-61
2021/07/26 03:44:09;;;;;;;13.75;10.07;;;21.10;95.10;;;;;;6245044;23;20076;-62
2021/07/26 03:46:34;;;;;;;12.10;10.50;;;21.10;95.10;;;;;;6244937;23;20004;-61
2021/07/26 03:49:00;;;;;;;11.90;10.70;;;21.10;95.20;;;;;;6217570;23;20050;-60
2021/07/26 03:51:25;;;;;;;13.82;12.40;;;21.20;95.10;;;;;;6244796;23;20000;-60
2021/07/26 03:53:51;;;;;;;14.18;12.32;;;21.10;95.10;;;;;;6245293;23;20000;-62
2021/07/26 03:56:17;;;;;;;14.23;11.77;;;21.00;95.20;;;;;;6246255;23;20001;-61
2021/07/26 03:58:43;;;;;;;14.85;11.75;;;20.90;95.20;;;;;;6245177;23;20383;-62
2021/07/26 04:01:09;;;;;;;19.50;11.82;;;20.90;95.40;;;;;;6245576;23;20011;-62
2021/07/26 04:03:34;;;;;;;17.75;11.50;;;20.90;95.40;;;;;;6244865;23;20014;-62
2021/07/26 04:06:12;;;;;;;12.77;11.38;;;20.90;95.80;;;;;;6245037;23;20004;-61
2021/07/26 04:08:40;;;;;;;14.18;11.20;;;20.90;95.30;;;;;;6244735;23;20079;-61
2021/07/26 04:11:13;;;;;;;13.63;11.10;;;20.90;95.30;;;;;;6244717;23;20315;-61
2021/07/26 04:13:40;;;;;;;12.07;10.45;;;20.90;95.30;;;;;;6218212;23;20015;-61
2021/07/26 04:16:06;;;;;;;13.70;11.57;;;20.90;95.20;;;;;;6244891;23;20051;-62
2021/07/26 04:18:31;;;;;;;14.70;11.77;;;20.80;95.10;;;;;;6244714;23;20454;-61
2021/07/26 04:20:57;;;;;;;13.27;11.15;;;20.90;95.10;;;;;;6245081;23;20020;-62
2021/07/26 04:23:22;;;;;;;14.57;10.57;;;21.00;95.10;;;;;;6245192;23;20004;-61
2021/07/26 04:25:50;;;;;;;12.05;10.75;;;21.00;95.20;;;;;;6244647;23;20008;-58
2021/07/26 04:28:16;;;;;;;16.65;11.18;;;21.00;95.20;;;;;;6244607;23;20374;-60
2021/07/26 04:30:41;;;;;;;12.35;10.35;;;21.10;95.00;;;;;;6244589;23;20094;-62
2021/07/26 04:33:09;;;;;;;27.85;20.63;;;21.10;94.90;;;;;;6244977;23;20008;-61
2021/07/26 04:35:35;;;;;;;21.70;18.08;;;21.10;94.90;;;;;;6244578;23;20457;-60
2021/07/26 04:38:01;;;;;;;18.73;12.63;;;21.10;95.10;;;;;;6245079;23;20005;-58
2021/07/26 04:40:26;;;;;;;15.90;11.82;;;21.00;94.90;;;;;;6244406;23;20008;-62
2021/07/26 04:42:53;;;;;;;12.77;11.38;;;20.80;95.30;;;;;;6245508;23;20007;-62
2021/07/26 04:45:19;;;;;;;13.43;10.73;;;20.80;95.20;;;;;;6244622;23;20066;-62
2021/07/26 04:47:45;;;;;;;14.63;10.77;;;20.90;95.10;;;;;;6244598;23;20449;-61
2021/07/26 04:50:10;;;;;;;12.23;10.95;;;20.90;95.20;;;;;;6244207;23;20019;-60
2021/07/26 04:52:37;;;;;;;14.50;10.65;;;20.90;95.00;;;;;;6244716;23;20024;-62
2021/07/26 04:55:03;;;;;;;14.13;11.57;;;21.00;95.00;;;;;;6244761;23;20055;-62
2021/07/26 04:57:29;;;;;;;14.93;11.73;;;21.20;94.70;;;;;;6243587;23;20004;-60
2021/07/26 04:59:54;;;;;;;18.95;12.23;;;21.10;94.90;;;;;;6217969;23;20075;-63
2021/07/26 05:02:20;;;;;;;13.32;11.57;;;21.20;94.80;;;;;;6244570;23;20012;-60
2021/07/26 05:04:46;;;;;;;13.48;11.13;;;21.30;94.40;;;;;;6217966;23;20008;-61
2021/07/26 05:07:11;;;;;;;11.52;10.32;;;21.30;94.40;;;;;;6244114;23;20443;-61
2021/07/26 05:09:38;;;;;;;15.55;11.77;;;21.30;94.50;;;;;;6244867;23;20031;-62
2021/07/26 05:12:12;;;;;;;14.13;10.93;;;21.20;94.90;;;;;;6245680;23;20004;-61
2021/07/26 05:14:50;;;;;;;12.40;10.50;;;21.10;95.20;;;;;;6244787;23;20076;-61
2021/07/26 05:17:19;;;;;;;16.33;10.52;;;21.00;95.40;;;;;;6243982;23;20031;-60
2021/07/26 05:19:45;;;;;;;11.60;10.48;;;21.10;95.40;;;;;;6244535;23;20087;-61
2021/07/26 05:22:10;;;;;;;13.20;10.45;;;21.20;95.20;;;;;;6244458;23;20347;-61
2021/07/26 05:24:36;;;;;;;13.43;10.00;;;21.20;95.20;;;;;;6245196;23;20005;-60
2021/07/26 05:27:03;;;;;;;14.38;10.77;;;21.20;95.20;;;;;;6244048;23;20000;-62
2021/07/26 05:29:30;;;;;;;19.00;12.65;;;21.30;95.00;;;;;;6244226;23;20425;-65
2021/07/26 05:31:56;;;;;;;16.23;11.55;;;21.30;94.80;;;;;;6218100;23;20381;-63
2021/07/26 05:34:22;;;;;;;15.50;10.90;;;21.30;94.70;;;;;;6244177;23;20008;-60
2021/07/26 05:36:48;;;;;;;12.35;10.55;;;21.30;94.80;;;;;;6217140;23;20127;-61
2021/07/26 05:39:13;;;;;;;16.17;11.27;;;21.40;94.70;;;;;;6217599;23;20003;-61
2021/07/26 05:41:39;;;;;;;22.85;13.15;;;21.50;94.60;;;;;;6246857;23;20000;-62
2021/07/26 05:44:05;;;;;;;21.25;13.60;;;21.20;95.10;;;;;;6244194;23;20007;-63
2021/07/26 05:46:30;;;;;;;14.18;11.23;;;21.20;95.20;;;;;;6244757;23;20090;-62
2021/07/26 05:48:56;;;;;;;15.40;11.55;;;21.30;95.00;;;;;;6244609;23;20013;-62
2021/07/26 05:51:21;;;;;;;15.88;11.20;;;21.40;95.10;;;;;;6245117;23;20485;-62
2021/07/26 05:53:47;;;;;;;15.50;10.65;;;21.60;94.90;;;;;;6244737;23;20027;-61
2021/07/26 05:56:13;;;;;;;17.77;11.18;;;21.80;94.90;;;;;;6244541;23;20000;-59
2021/07/26 05:58:45;;;;;;;14.38;10.73;;;21.70;94.60;;;;;;6244543;23;20000;-64
2021/07/26 06:03:49;;;;;;;13.40;10.68;;;21.70;94.80;;;;;;6243738;23;20043;-59
2021/07/26 06:06:15;;;;;;;16.85;11.07;;;21.90;94.30;;;;;;6244152;23;20086;-61
2021/07/26 06:08:41;;;;;;;17.98;10.93;;;21.70;94.50;;;;;;6244547;23;20039;-60
2021/07/26 06:11:06;;;;;;;12.07;10.57;;;21.80;94.40;;;;;;6244689;23;20015;-63
2021/07/26 06:13:32;;;;;;;12.63;10.85;;;21.70;94.60;;;;;;6244533;23;20023;-63
2021/07/26 06:15:58;;;;;;;12.57;11.32;;;21.70;94.70;;;;;;6243785;23;20027;-61
2021/07/26 06:18:26;;;;;;;18.42;11.35;;;21.80;94.80;;;;;;6243850;23;20012;-63
2021/07/26 06:20:52;;;;;;;13.65;11.27;;;21.90;94.60;;;;;;6244388;23;20054;-60
2021/07/26 06:23:20;;;;;;;15.77;11.43;;;22.00;94.40;;;;;;6244177;23;20333;-60
2021/07/26 06:25:45;;;;;;;12.77;11.13;;;22.10;94.10;;;;;;6243439;23;20138;-58
2021/07/26 06:28:11;;;;;;;13.88;10.40;;;22.40;94.00;;;;;;6217107;23;20059;-62
2021/07/26 06:30:37;;;;;;;13.05;9.57;;;22.40;93.60;;;;;;6243317;23;20043;-62
2021/07/26 06:33:06;;;;;;;15.27;10.30;;;22.40;93.60;;;;;;6244760;23;20083;-62
2021/07/26 06:35:32;;;;;;;16.40;10.68;;;22.30;94.00;;;;;;6243138;23;20059;-61
2021/07/26 06:37:57;;;;;;;13.60;10.80;;;22.30;94.10;;;;;;6243703;23;20000;-58
2021/07/26 06:40:23;;;;;;;12.10;10.90;;;22.30;94.10;;;;;;6244437;23;20063;-61
2021/07/26 06:42:49;;;;;;;11.23;10.00;;;22.20;94.30;;;;;;6243893;23;20067;-62
2021/07/26 06:45:14;;;;;;;13.15;10.10;;;22.30;94.20;;;;;;6216855;23;20004;-63
2021/07/26 06:47:40;;;;;;;12.40;9.95;;;22.40;94.10;;;;;;6191851;23;20008;-62
2021/07/26 06:50:06;;;;;;;15.95;9.98;;;22.20;94.50;;;;;;6241619;23;20532;-63
2021/07/26 06:52:31;;;;;;;14.95;10.15;;;22.30;94.40;;;;;;6245031;23;20079;-61
2021/07/26 06:54:57;;;;;;;12.00;9.63;;;22.50;94.10;;;;;;6244962;23;20346;-61
2021/07/26 06:57:23;;;;;;;21.67;9.50;;;22.30;94.30;;;;;;6243868;23;20494;-62
2021/07/26 06:59:49;;;;;;;11.30;9.02;;;22.40;94.30;;;;;;6247914;23;20034;-62
2021/07/26 07:02:14;;;;;;;12.25;9.35;;;22.50;94.00;;;;;;6246229;23;20012;-59
2021/07/26 07:04:40;;;;;;;9.10;8.20;;;22.40;94.10;;;;;;6219175;23;20004;-63
2021/07/26 07:07:06;;;;;;;9.20;7.82;;;22.60;93.60;;;;;;6245293;23;20004;-63
2021/07/26 07:09:33;;;;;;;8.60;7.70;;;22.80;92.90;;;;;;6245681;23;20004;-62
2021/07/26 07:11:58;;;;;;;10.85;7.68;;;23.00;92.60;;;;;;6244741;23;20553;-59
2021/07/26 07:14:24;;;;;;;10.18;7.57;;;23.00;92.40;;;;;;6245707;23;20024;-62
2021/07/26 07:16:49;;;;;;;8.10;6.57;;;23.00;92.40;;;;;;6245660;23;20040;-61
2021/07/26 07:19:15;;;;;;;11.75;6.80;;;23.00;91.50;;;;;;6245260;23;20019;-63
2021/07/26 07:21:40;;;;;;;12.25;6.07;;;23.00;91.50;;;;;;6245726;23;20443;-59
2021/07/26 07:24:06;;;;;;;9.63;6.70;;;23.10;90.90;;;;;;6244970;23;20004;-62
2021/07/26 07:26:32;;;;;;;9.85;6.80;;;23.10;91.30;;;;;;6244314;23;20338;-62
2021/07/26 07:28:58;;;;;;;7.30;6.35;;;23.20;90.50;;;;;;6218422;23;20054;-62
2021/07/26 07:31:26;;;;;;;10.95;6.13;;;23.20;90.30;;;;;;6245138;23;20012;-61
2021/07/26 07:33:56;;;;;;;7.35;6.53;;;23.20;90.40;;;;;;6245397;23;20004;-63
2021/07/26 07:36:21;;;;;;;6.72;6.03;;;23.40;90.20;;;;;;6215865;23;20008;-62
2021/07/26 07:38:47;;;;;;;7.05;5.65;;;23.50;90.40;;;;;;6243929;23;20016;-59
2021/07/26 07:41:13;;;;;;;7.95;5.68;;;23.70;89.90;;;;;;6247474;23;20008;-59
2021/07/26 07:43:39;;;;;;;6.05;5.45;;;23.90;88.50;;;;;;6245971;23;20070;-61
2021/07/26 07:46:05;;;;;;;6.55;5.55;;;23.90;88.00;;;;;;6247839;23;20004;-61
2021/07/26 07:48:31;;;;;;;10.70;5.78;;;23.80;88.50;;;;;;6252102;23;20000;-60
2021/07/26 07:50:57;;;;;;;8.77;5.40;;;23.90;87.90;;;;;;6247533;23;20008;-61
2021/07/26 07:53:23;;;;;;;7.32;5.28;;;23.90;88.50;;;;;;6219103;23;20023;-61
2021/07/26 07:55:51;;;;;;;9.32;5.05;;;24.00;86.50;;;;;;6246089;23;20016;-59
2021/07/26 07:58:16;;;;;;;7.80;5.07;;;24.00;87.00;;;;;;6245646;23;20000;-61
2021/07/26 08:00:42;;;;;;;5.53;4.93;;;24.10;86.60;;;;;;6249648;23;20520;-57
2021/07/26 08:03:08;;;;;;;6.30;5.10;;;24.20;86.30;;;;;;6256090;23;19996;-58
2021/07/26 08:05:34;;;;;;;7.22;5.05;;;24.30;85.70;;;;;;6230129;23;20000;-58
2021/07/26 08:08:00;;;;;;;6.10;5.03;;;24.20;85.90;;;;;;6254013;23;20019;-58
2021/07/26 08:10:26;;;;;;;6.18;5.10;;;24.30;84.90;;;;;;6257971;23;20036;-59
2021/07/26 08:12:52;;;;;;;10.65;6.03;;;24.40;85.00;;;;;;6257910;23;20004;-59
2021/07/26 08:15:18;;;;;;;7.03;4.97;;;24.50;84.40;;;;;;6257842;23;20056;-62
2021/07/26 08:17:45;;;;;;;5.53;4.95;;;24.60;84.70;;;;;;6230723;23;20007;-65
2021/07/26 08:20:16;;;;;;;5.20;4.70;;;24.80;82.20;;;;;;6252460;23;20019;-59
2021/07/26 08:22:43;;;;;;;7.43;4.85;;;24.80;83.20;;;;;;6226573;23;20008;-59
2021/07/26 08:25:11;;;;;;;5.38;4.88;;;24.90;81.90;;;;;;6253689;23;20043;-59
2021/07/26 08:28:07;;;;;;;7.05;4.90;;;24.90;80.50;;;;;;6252630;23;20012;-60
2021/07/26 08:30:34;;;;;;;6.30;5.15;;;25.00;80.30;;;;;;6228999;23;20000;-60
2021/07/26 08:33:01;;;;;;;5.88;5.00;;;25.10;80.80;;;;;;6243493;23;20019;-60
2021/07/26 08:35:27;;;;;;;6.88;4.95;;;25.30;79.80;;;;;;6243921;23;20014;-57
2021/07/26 08:37:53;;;;;;;7.88;5.05;;;25.10;78.30;;;;;;6245695;23;20027;-61
2021/07/26 08:40:20;;;;;;;5.88;4.60;;;25.20;78.60;;;;;;6219157;23;20029;-61
2021/07/26 08:42:46;;;;;;;6.18;4.82;;;25.30;77.20;;;;;;6245522;23;20373;-61
2021/07/26 08:45:12;;;;;;;5.57;4.72;;;25.10;77.80;;;;;;6244787;23;20507;-59
2021/07/26 08:47:43;;;;;;;6.50;5.20;;;25.30;77.50;;;;;;6244234;23;20016;-60
2021/07/26 08:50:11;;;;;;;9.75;5.85;;;25.30;77.40;;;;;;6245109;23;20054;-67
2021/07/26 08:52:42;;;;;;;6.60;5.13;;;25.40;76.60;;;;;;6244317;23;20052;-65
2021/07/26 08:55:15;;;;;;;9.88;5.90;;;25.40;76.80;;;;;;6216831;23;20024;-66
2021/07/26 08:57:46;;;;;;;6.47;4.80;;;25.50;77.00;;;;;;6243771;23;20011;-65
2021/07/26 09:00:14;;;;;;;6.80;4.68;;;25.60;77.00;;;;;;6245446;23;20012;-66
2021/07/26 11:02:41;;;;;;;6.85;4.82;;;27.20;69.10;;;;;;5126748;27;20020;-70
2021/07/26 11:05:25;;;;;;;5.65;4.60;;;27.30;70.10;;;;;;5127083;28;20077;-68
2021/07/26 11:08:12;;;;;;;5.57;4.75;;;27.40;68.90;;;;;;5131812;28;20035;-69
2021/07/26 11:10:50;;;;;;;5.35;4.85;;;27.50;68.80;;;;;;5114507;28;20035;-69
2021/07/26 11:13:17;;;;;;;6.65;4.45;;;27.30;68.50;;;;;;5112636;27;20034;-67
2021/07/26 13:00:00;;;;;;;7.45;5.57;;;28.00;66.70;;;;;;5084538;28;20028;-49
2021/07/26 13:02:26;;;;;;;9.30;5.93;;;27.90;67.10;;;;;;5094845;28;20547;-51
2021/07/26 13:04:52;;;;;;;7.00;4.90;;;28.00;68.40;;;;;;5094348;28;20035;-52
2021/07/26 13:07:18;;;;;;;5.22;4.68;;;28.00;69.00;;;;;;5093409;28;20028;-52
2021/07/26 13:09:43;;;;;;;7.47;5.00;;;27.90;68.00;;;;;;5093177;28;20416;-53
2021/07/26 13:12:09;;;;;;;4.80;4.40;;;27.90;68.20;;;;;;5087810;28;20494;-54
2021/07/26 13:14:34;;;;;;;9.25;4.53;;;27.70;67.20;;;;;;5104502;28;20054;-51
2021/07/26 13:17:00;;;;;;;9.60;5.07;;;27.70;67.10;;;;;;5113582;28;20035;-52
2021/07/26 13:19:26;;;;;;;7.07;4.53;;;27.70;67.70;;;;;;5105229;28;20411;-53
2021/07/26 13:21:51;;;;;;;5.53;5.03;;;27.70;67.60;;;;;;5093739;28;20031;-50
2021/07/26 13:24:17;;;;;;;7.30;4.78;;;27.80;67.70;;;;;;5093569;28;20032;-54
2021/07/26 13:26:43;;;;;;;6.43;4.78;;;27.80;67.40;;;;;;5094109;28;20047;-57
2021/07/26 13:29:09;;;;;;;5.93;4.70;;;27.80;67.50;;;;;;5094652;28;20137;-55
2021/07/26 13:31:35;;;;;;;6.72;4.78;;;27.80;66.40;;;;;;5093609;28;20483;-54
2021/07/26 13:34:01;;;;;;;7.05;5.22;;;27.80;66.40;;;;;;5076333;28;20036;-50
2021/07/26 13:36:26;;;;;;;6.20;4.82;;;27.60;66.20;;;;;;5092833;28;20035;-53
2021/07/26 13:38:52;;;;;;;5.15;4.60;;;27.50;66.40;;;;;;5093205;28;20035;-51
2021/07/26 13:41:18;;;;;;;9.23;4.90;;;27.40;66.30;;;;;;5093013;28;20035;-50
2021/07/26 13:43:43;;;;;;;9.10;4.80;;;27.40;66.10;;;;;;5093497;28;20415;-51
2021/07/26 13:46:10;;;;;;;5.53;4.88;;;27.30;66.40;;;;;;5092800;28;20028;-52
2021/07/26 13:48:36;;;;;;;6.85;4.60;;;27.30;66.50;;;;;;5092637;28;20060;-49
2021/07/26 13:51:02;;;;;;;8.95;5.18;;;27.30;66.30;;;;;;5072708;28;20059;-49
2021/07/26 13:53:27;;;;;;;6.25;4.95;;;27.30;67.30;;;;;;5072290;28;20536;-50
2021/07/26 13:55:53;;;;;;;7.65;5.00;;;27.20;67.10;;;;;;5082645;28;20077;-50
2021/07/26 13:58:19;;;;;;;5.95;5.10;;;27.10;68.30;;;;;;5093518;28;20032;-53
2021/07/26 14:00:45;;;;;;;8.52;5.07;;;26.90;69.00;;;;;;5092796;28;20399;-50
2021/07/26 14:03:11;;;;;;;7.45;4.90;;;26.60;70.60;;;;;;5092393;28;20047;-52
2021/07/26 14:05:38;;;;;;;8.13;5.78;;;26.40;71.90;;;;;;5085636;28;20032;-51
2021/07/26 14:08:04;;;;;;;7.97;5.85;;;26.30;73.30;;;;;;5076629;28;20503;-54
2021/07/26 14:10:29;;;;;;;7.85;6.00;;;26.00;75.20;;;;;;5091155;28;20025;-54
2021/07/26 14:12:55;;;;;;;8.02;6.25;;;25.80;77.40;;;;;;5089895;28;20037;-54
2021/07/26 14:15:21;;;;;;;7.88;6.22;;;25.40;79.80;;;;;;5074295;28;20020;-52
2021/07/26 14:17:46;;;;;;;8.15;5.75;;;25.30;80.90;;;;;;5073812;28;20035;-50
2021/07/26 14:20:12;;;;;;;11.38;5.97;;;25.10;80.70;;;;;;5091572;28;20071;-50
2021/07/26 14:22:38;;;;;;;6.05;5.03;;;25.00;80.60;;;;;;5093517;28;20103;-58
2021/07/26 14:25:05;;;;;;;8.13;5.80;;;25.00;80.80;;;;;;5097612;28;20510;-50
2021/07/26 14:27:31;;;;;;;10.85;6.07;;;24.80;80.30;;;;;;5096301;28;20069;-52
2021/07/26 14:29:56;;;;;;;9.63;6.50;;;24.80;80.20;;;;;;5087856;28;20020;-56
2021/07/26 14:32:22;;;;;;;10.20;7.90;;;24.90;80.00;;;;;;5097564;28;20040;-54
2021/07/26 14:34:47;;;;;;;8.07;6.40;;;25.10;79.70;;;;;;5080366;28;20040;-53
2021/07/26 14:37:13;;;;;;;8.65;6.65;;;25.20;80.10;;;;;;5098941;28;20028;-56
2021/07/26 14:39:39;;;;;;;9.82;5.75;;;25.40;81.40;;;;;;5086200;28;20625;-52
2021/07/26 14:42:05;;;;;;;6.88;5.32;;;25.50;81.80;;;;;;5079535;28;20376;-56
2021/07/26 14:44:30;;;;;;;9.43;6.20;;;25.50;81.00;;;;;;5095938;28;20042;-53
2021/07/26 14:46:56;;;;;;;7.05;6.35;;;25.50;82.40;;;;;;5096188;28;20399;-51
2021/07/26 14:49:22;;;;;;;11.35;9.40;;;25.60;82.50;;;;;;5083128;28;20036;-48
2021/07/26 14:51:47;;;;;;;9.82;8.85;;;25.60;81.10;;;;;;5098985;28;20042;-54
2021/07/26 14:54:13;;;;;;;8.15;6.32;;;25.70;80.60;;;;;;5097319;28;20028;-53
2021/07/26 14:56:38;;;;;;;6.55;5.40;;;25.70;79.70;;;;;;5094650;28;20028;-53
2021/07/26 14:59:07;;;;;;;9.77;7.53;;;25.60;78.80;;;;;;5094712;28;20491;-55
2021/07/26 15:01:34;;;;;;;11.43;9.02;;;25.50;79.00;;;;;;5094921;28;20115;-54
2021/07/26 15:04:00;;;;;;;7.68;6.80;;;25.50;79.50;;;;;;5085680;28;20031;-55
2021/07/26 15:06:25;;;;;;;8.45;6.60;;;25.60;80.40;;;;;;5093039;28;20743;-55
2021/07/26 15:08:51;;;;;;;6.75;6.03;;;25.60;81.10;;;;;;5076186;28;20421;-51
2021/07/26 15:11:17;;;;;;;8.10;6.70;;;25.50;82.00;;;;;;5094156;28;20031;-48
2021/07/26 15:13:43;;;;;;;9.57;6.70;;;25.50;83.10;;;;;;5100318;28;20030;-55
2021/07/26 15:16:09;;;;;;;7.07;6.25;;;25.40;84.50;;;;;;5099402;28;20024;-55
2021/07/26 15:18:34;;;;;;;7.45;6.72;;;25.20;85.00;;;;;;5098611;28;20035;-51
2021/07/26 15:21:01;;;;;;;6.93;6.22;;;25.10;85.50;;;;;;5098459;28;20040;-55
2021/07/26 15:23:28;;;;;;;8.07;6.72;;;25.10;85.20;;;;;;5097273;28;20024;-50
2021/07/26 15:25:55;;;;;;;8.52;6.15;;;25.10;84.70;;;;;;5096266;28;20028;-53
2021/07/26 15:28:20;;;;;;;7.85;5.70;;;25.10;84.20;;;;;;5097029;28;20570;-64
2021/07/26 15:30:46;;;;;;;6.68;5.90;;;25.10;83.80;;;;;;5097683;28;20083;-52
2021/07/26 15:33:12;;;;;;;6.47;5.22;;;25.20;83.20;;;;;;5106274;28;20062;-50
2021/07/26 15:35:38;;;;;;;6.82;5.55;;;25.20;82.80;;;;;;5113290;28;20025;-51
2021/07/26 15:38:05;;;;;;;6.60;5.68;;;25.10;83.40;;;;;;5106030;28;20027;-55
2021/07/26 15:40:32;;;;;;;9.48;7.05;;;25.10;83.80;;;;;;5096086;28;20107;-56
2021/07/26 15:42:58;;;;;;;8.07;6.50;;;25.10;84.70;;;;;;5107368;28;20032;-53
2021/07/26 15:45:23;;;;;;;9.70;7.60;;;25.10;84.70;;;;;;5096803;28;20040;-55
2021/07/26 15:47:49;;;;;;;11.57;10.35;;;25.10;84.70;;;;;;5104421;28;20441;-55
2021/07/26 15:50:15;;;;;;;7.80;7.00;;;25.10;84.40;;;;;;5115564;28;20038;-54
2021/07/26 15:52:42;;;;;;;13.52;10.52;;;25.10;84.20;;;;;;5115972;28;20027;-49
2021/07/26 15:55:09;;;;;;;9.27;7.35;;;25.20;83.90;;;;;;5116674;28;20115;-55
2021/07/26 15:57:35;;;;;;;9.68;6.97;;;25.20;83.50;;;;;;5106807;28;20451;-52
2021/07/26 16:00:02;;;;;;;11.68;5.90;;;25.40;83.30;;;;;;5096265;28;20059;-54
2021/07/26 16:02:28;;;;;;;8.65;6.10;;;25.40;82.60;;;;;;5096455;28;20039;-55
2021/07/26 16:04:54;;;;;;;8.68;6.15;;;25.30;82.30;;;;;;5081425;28;20056;-53
2021/07/26 16:07:19;;;;;;;7.97;5.82;;;25.20;82.60;;;;;;5096075;28;20417;-48
2021/07/26 16:09:45;;;;;;;8.38;6.60;;;25.00;82.90;;;;;;5077545;28;20562;-54
2021/07/26 16:12:11;;;;;;;9.23;6.15;;;24.80;84.20;;;;;;5114869;28;20161;-55
2021/07/26 16:14:36;;;;;;;7.63;5.82;;;24.80;84.10;;;;;;5103981;28;20479;-52
2021/07/26 16:17:02;;;;;;;7.60;5.72;;;24.80;84.00;;;;;;5115124;28;20040;-54
2021/07/26 16:19:27;;;;;;;8.85;6.60;;;24.80;84.40;;;;;;5106240;28;20035;-50